sensor_id;sensor_type;location;lat;lon;timestamp;P1;durP1;ratioP1;P2;durP2;ratioP2
48203;SDS011;33994;50.998;5.864;2023-04-24T00:00:20;7.13;;;3.67;;
48203;SDS011;33994;50.998;5.864;2023-04-24T00:03:23;9.30;;;4.28;;
48203;SDS011;33994;50.998;5.864;2023-04-24T00:06:27;5.53;;;3.45;;
48203;SDS011;33994;50.998;5.864;2023-04-24T00:09:31;8.25;;;3.75;;
48203;SDS011;33994;50.998;5.864;2023-04-24T00:12:35;9.88;;;5.32;;
48203;SDS011;33994;50.998;5.864;2023-04-24T00:15:38;6.53;;;3.95;;
48203;SDS011;33994;50.998;5.864;2023-04-24T00:18:41;8.15;;;4.10;;
48203;SDS011;33994;50.998;5.864;2023-04-24T00:21:44;10.27;;;4.72;;
48203;SDS011;33994;50.998;5.864;2023-04-24T00:24:49;11.48;;;4.50;;
48203;SDS011;33994;50.998;5.864;2023-04-24T00:27:52;8.13;;;4.53;;
48203;SDS011;33994;50.998;5.864;2023-04-24T00:30:55;9.55;;;5.20;;
48203;SDS011;33994;50.998;5.864;2023-04-24T00:33:58;10.30;;;5.82;;
48203;SDS011;33994;50.998;5.864;2023-04-24T00:37:01;12.50;;;5.88;;
48203;SDS011;33994;50.998;5.864;2023-04-24T00:40:06;12.68;;;5.93;;
48203;SDS011;33994;50.998;5.864;2023-04-24T00:43:10;9.18;;;5.55;;
48203;SDS011;33994;50.998;5.864;2023-04-24T00:46:13;12.55;;;5.47;;
48203;SDS011;33994;50.998;5.864;2023-04-24T00:49:16;7.60;;;5.72;;
48203;SDS011;33994;50.998;5.864;2023-04-24T00:52:20;9.25;;;5.95;;
48203;SDS011;33994;50.998;5.864;2023-04-24T00:55:25;11.80;;;6.95;;
48203;SDS011;33994;50.998;5.864;2023-04-24T00:58:28;9.77;;;6.35;;
48203;SDS011;33994;50.998;5.864;2023-04-24T01:01:32;15.20;;;6.60;;
48203;SDS011;33994;50.998;5.864;2023-04-24T01:04:35;13.82;;;7.00;;
48203;SDS011;33994;50.998;5.864;2023-04-24T01:07:38;16.02;;;7.30;;
48203;SDS011;33994;50.998;5.864;2023-04-24T01:10:44;16.48;;;8.15;;
48203;SDS011;33994;50.998;5.864;2023-04-24T01:13:48;19.15;;;8.52;;
48203;SDS011;33994;50.998;5.864;2023-04-24T01:16:51;15.77;;;8.05;;
48203;SDS011;33994;50.998;5.864;2023-04-24T01:19:54;17.98;;;8.57;;
48203;SDS011;33994;50.998;5.864;2023-04-24T01:22:59;16.73;;;8.32;;
48203;SDS011;33994;50.998;5.864;2023-04-24T01:26:02;17.50;;;9.50;;
48203;SDS011;33994;50.998;5.864;2023-04-24T01:29:05;20.98;;;10.15;;
48203;SDS011;33994;50.998;5.864;2023-04-24T01:32:08;25.27;;;9.50;;
48203;SDS011;33994;50.998;5.864;2023-04-24T01:35:11;20.30;;;10.27;;
48203;SDS011;33994;50.998;5.864;2023-04-24T01:38:16;16.13;;;9.68;;
48203;SDS011;33994;50.998;5.864;2023-04-24T01:41:19;15.15;;;9.23;;
48203;SDS011;33994;50.998;5.864;2023-04-24T01:44:22;18.13;;;8.95;;
48203;SDS011;33994;50.998;5.864;2023-04-24T01:47:26;18.23;;;10.25;;
48203;SDS011;33994;50.998;5.864;2023-04-24T01:50:29;25.77;;;10.15;;
48203;SDS011;33994;50.998;5.864;2023-04-24T01:53:33;24.58;;;10.93;;
48203;SDS011;33994;50.998;5.864;2023-04-24T01:56:36;20.13;;;10.23;;
48203;SDS011;33994;50.998;5.864;2023-04-24T01:59:43;20.85;;;10.52;;
48203;SDS011;33994;50.998;5.864;2023-04-24T02:02:46;21.80;;;10.82;;
48203;SDS011;33994;50.998;5.864;2023-04-24T02:05:49;20.98;;;10.77;;
48203;SDS011;33994;50.998;5.864;2023-04-24T02:08:54;16.92;;;9.85;;
48203;SDS011;33994;50.998;5.864;2023-04-24T02:11:57;18.33;;;10.07;;
48203;SDS011;33994;50.998;5.864;2023-04-24T02:15:00;21.95;;;9.88;;
48203;SDS011;33994;50.998;5.864;2023-04-24T02:18:04;15.43;;;9.90;;
48203;SDS011;33994;50.998;5.864;2023-04-24T02:21:07;25.40;;;9.85;;
48203;SDS011;33994;50.998;5.864;2023-04-24T02:24:11;18.48;;;9.60;;
48203;SDS011;33994;50.998;5.864;2023-04-24T02:27:15;21.00;;;9.63;;
48203;SDS011;33994;50.998;5.864;2023-04-24T02:30:18;18.38;;;9.57;;
48203;SDS011;33994;50.998;5.864;2023-04-24T02:33:21;23.70;;;10.10;;
48203;SDS011;33994;50.998;5.864;2023-04-24T02:36:24;20.80;;;9.35;;
48203;SDS011;33994;50.998;5.864;2023-04-24T02:39:29;16.55;;;9.40;;
48203;SDS011;33994;50.998;5.864;2023-04-24T02:42:32;17.83;;;10.23;;
48203;SDS011;33994;50.998;5.864;2023-04-24T02:45:35;17.23;;;9.60;;
48203;SDS011;33994;50.998;5.864;2023-04-24T02:48:38;18.77;;;9.80;;
48203;SDS011;33994;50.998;5.864;2023-04-24T02:51:42;26.10;;;10.18;;
48203;SDS011;33994;50.998;5.864;2023-04-24T02:54:46;17.85;;;8.95;;
48203;SDS011;33994;50.998;5.864;2023-04-24T02:57:49;17.20;;;9.90;;
48203;SDS011;33994;50.998;5.864;2023-04-24T03:00:53;19.17;;;9.77;;
48203;SDS011;33994;50.998;5.864;2023-04-24T03:03:56;18.15;;;10.63;;
48203;SDS011;33994;50.998;5.864;2023-04-24T03:06:59;17.95;;;8.75;;
48203;SDS011;33994;50.998;5.864;2023-04-24T03:10:04;16.58;;;9.52;;
48203;SDS011;33994;50.998;5.864;2023-04-24T03:13:08;19.63;;;9.07;;
48203;SDS011;33994;50.998;5.864;2023-04-24T03:16:12;15.32;;;9.45;;
48203;SDS011;33994;50.998;5.864;2023-04-24T03:19:15;15.85;;;8.27;;
48203;SDS011;33994;50.998;5.864;2023-04-24T03:22:18;14.43;;;8.75;;
48203;SDS011;33994;50.998;5.864;2023-04-24T03:25:22;21.10;;;8.15;;
48203;SDS011;33994;50.998;5.864;2023-04-24T03:28:25;14.95;;;7.90;;
48203;SDS011;33994;50.998;5.864;2023-04-24T03:31:29;13.50;;;7.78;;
48203;SDS011;33994;50.998;5.864;2023-04-24T03:34:31;19.33;;;10.40;;
48203;SDS011;33994;50.998;5.864;2023-04-24T03:37:35;16.50;;;8.95;;
48203;SDS011;33994;50.998;5.864;2023-04-24T03:40:39;19.13;;;9.48;;
48203;SDS011;33994;50.998;5.864;2023-04-24T03:43:42;12.73;;;7.65;;
48203;SDS011;33994;50.998;5.864;2023-04-24T03:46:45;15.90;;;8.60;;
48203;SDS011;33994;50.998;5.864;2023-04-24T03:49:48;14.70;;;8.88;;
48203;SDS011;33994;50.998;5.864;2023-04-24T03:52:52;15.65;;;9.15;;
48203;SDS011;33994;50.998;5.864;2023-04-24T03:55:56;15.80;;;9.10;;
48203;SDS011;33994;50.998;5.864;2023-04-24T03:58:59;19.38;;;9.35;;
48203;SDS011;33994;50.998;5.864;2023-04-24T04:02:02;12.73;;;8.57;;
48203;SDS011;33994;50.998;5.864;2023-04-24T04:05:06;16.67;;;9.43;;
48203;SDS011;33994;50.998;5.864;2023-04-24T04:08:09;14.75;;;8.82;;
48203;SDS011;33994;50.998;5.864;2023-04-24T04:11:14;16.33;;;9.85;;
48203;SDS011;33994;50.998;5.864;2023-04-24T04:14:17;15.10;;;9.45;;
48203;SDS011;33994;50.998;5.864;2023-04-24T04:17:20;15.45;;;9.13;;
48203;SDS011;33994;50.998;5.864;2023-04-24T04:20:24;14.43;;;9.43;;
48203;SDS011;33994;50.998;5.864;2023-04-24T04:23:27;16.30;;;10.13;;
48203;SDS011;33994;50.998;5.864;2023-04-24T04:26:32;18.60;;;9.80;;
48203;SDS011;33994;50.998;5.864;2023-04-24T04:29:35;14.32;;;9.18;;
48203;SDS011;33994;50.998;5.864;2023-04-24T04:32:38;16.13;;;8.93;;
48203;SDS011;33994;50.998;5.864;2023-04-24T04:35:41;15.75;;;9.57;;
48203;SDS011;33994;50.998;5.864;2023-04-24T04:38:44;19.15;;;9.98;;
48203;SDS011;33994;50.998;5.864;2023-04-24T04:41:49;16.73;;;9.13;;
48203;SDS011;33994;50.998;5.864;2023-04-24T04:44:52;17.08;;;9.80;;
48203;SDS011;33994;50.998;5.864;2023-04-24T04:47:55;16.65;;;9.10;;
48203;SDS011;33994;50.998;5.864;2023-04-24T04:50:58;13.10;;;8.55;;
48203;SDS011;33994;50.998;5.864;2023-04-24T04:54:01;14.55;;;8.05;;
48203;SDS011;33994;50.998;5.864;2023-04-24T04:57:06;15.55;;;8.95;;
48203;SDS011;33994;50.998;5.864;2023-04-24T05:00:09;13.52;;;8.27;;
48203;SDS011;33994;50.998;5.864;2023-04-24T05:03:13;15.68;;;9.02;;
48203;SDS011;33994;50.998;5.864;2023-04-24T05:06:16;15.68;;;8.98;;
48203;SDS011;33994;50.998;5.864;2023-04-24T05:09:19;16.83;;;8.25;;
48203;SDS011;33994;50.998;5.864;2023-04-24T05:12:24;11.85;;;8.10;;
48203;SDS011;33994;50.998;5.864;2023-04-24T05:15:27;12.38;;;7.75;;
48203;SDS011;33994;50.998;5.864;2023-04-24T05:18:30;13.50;;;7.57;;
48203;SDS011;33994;50.998;5.864;2023-04-24T05:21:33;14.80;;;7.75;;
48203;SDS011;33994;50.998;5.864;2023-04-24T05:24:37;14.95;;;7.95;;
48203;SDS011;33994;50.998;5.864;2023-04-24T05:27:42;13.38;;;8.27;;
48203;SDS011;33994;50.998;5.864;2023-04-24T05:30:45;12.68;;;7.82;;
48203;SDS011;33994;50.998;5.864;2023-04-24T05:33:48;11.52;;;7.55;;
48203;SDS011;33994;50.998;5.864;2023-04-24T05:36:51;8.88;;;6.47;;
48203;SDS011;33994;50.998;5.864;2023-04-24T05:39:54;10.05;;;6.32;;
48203;SDS011;33994;50.998;5.864;2023-04-24T05:42:59;11.15;;;6.68;;
48203;SDS011;33994;50.998;5.864;2023-04-24T05:46:02;11.73;;;5.80;;
48203;SDS011;33994;50.998;5.864;2023-04-24T05:49:05;8.50;;;5.60;;
48203;SDS011;33994;50.998;5.864;2023-04-24T05:52:08;10.55;;;5.50;;
48203;SDS011;33994;50.998;5.864;2023-04-24T05:55:11;10.32;;;5.15;;
48203;SDS011;33994;50.998;5.864;2023-04-24T05:58:16;8.93;;;5.68;;
48203;SDS011;33994;50.998;5.864;2023-04-24T06:01:19;9.93;;;4.90;;
48203;SDS011;33994;50.998;5.864;2023-04-24T06:04:22;9.18;;;5.78;;
48203;SDS011;33994;50.998;5.864;2023-04-24T06:07:25;7.40;;;4.65;;
48203;SDS011;33994;50.998;5.864;2023-04-24T06:10:29;9.02;;;4.70;;
48203;SDS011;33994;50.998;5.864;2023-04-24T06:13:33;6.70;;;4.10;;
48203;SDS011;33994;50.998;5.864;2023-04-24T06:16:36;7.38;;;3.67;;
48203;SDS011;33994;50.998;5.864;2023-04-24T06:19:39;5.55;;;3.53;;
48203;SDS011;33994;50.998;5.864;2023-04-24T06:22:42;6.72;;;4.15;;
48203;SDS011;33994;50.998;5.864;2023-04-24T06:25:46;7.38;;;3.70;;
48203;SDS011;33994;50.998;5.864;2023-04-24T06:28:50;9.48;;;4.28;;
48203;SDS011;33994;50.998;5.864;2023-04-24T06:31:53;7.35;;;4.40;;
48203;SDS011;33994;50.998;5.864;2023-04-24T06:34:56;5.95;;;3.65;;
48203;SDS011;33994;50.998;5.864;2023-04-24T06:37:59;7.07;;;3.92;;
48203;SDS011;33994;50.998;5.864;2023-04-24T06:41:02;7.78;;;3.65;;
48203;SDS011;33994;50.998;5.864;2023-04-24T06:44:07;7.35;;;4.72;;
48203;SDS011;33994;50.998;5.864;2023-04-24T06:47:10;6.63;;;3.67;;
48203;SDS011;33994;50.998;5.864;2023-04-24T06:50:13;7.75;;;3.78;;
48203;SDS011;33994;50.998;5.864;2023-04-24T06:53:17;5.90;;;4.30;;
48203;SDS011;33994;50.998;5.864;2023-04-24T06:56:20;8.63;;;4.43;;
48203;SDS011;33994;50.998;5.864;2023-04-24T06:59:24;9.32;;;4.00;;
48203;SDS011;33994;50.998;5.864;2023-04-24T07:02:27;8.25;;;4.85;;
48203;SDS011;33994;50.998;5.864;2023-04-24T07:05:30;8.43;;;5.00;;
48203;SDS011;33994;50.998;5.864;2023-04-24T07:08:33;7.15;;;4.72;;
48203;SDS011;33994;50.998;5.864;2023-04-24T07:11:37;11.93;;;5.10;;
48203;SDS011;33994;50.998;5.864;2023-04-24T07:14:41;9.68;;;4.07;;
48203;SDS011;33994;50.998;5.864;2023-04-24T07:17:44;8.25;;;4.35;;
48203;SDS011;33994;50.998;5.864;2023-04-24T07:20:48;6.95;;;3.70;;
48203;SDS011;33994;50.998;5.864;2023-04-24T07:23:51;4.80;;;3.33;;
48203;SDS011;33994;50.998;5.864;2023-04-24T07:26:54;4.65;;;3.20;;
48203;SDS011;33994;50.998;5.864;2023-04-24T07:29:58;8.13;;;3.67;;
48203;SDS011;33994;50.998;5.864;2023-04-24T07:33:01;5.90;;;3.33;;
48203;SDS011;33994;50.998;5.864;2023-04-24T07:36:04;6.85;;;3.65;;
48203;SDS011;33994;50.998;5.864;2023-04-24T07:39:07;7.03;;;4.38;;
48203;SDS011;33994;50.998;5.864;2023-04-24T07:42:10;5.95;;;3.88;;
48203;SDS011;33994;50.998;5.864;2023-04-24T07:45:15;10.82;;;4.97;;
48203;SDS011;33994;50.998;5.864;2023-04-24T07:48:18;12.20;;;4.50;;
48203;SDS011;33994;50.998;5.864;2023-04-24T07:51:22;6.55;;;4.53;;
48203;SDS011;33994;50.998;5.864;2023-04-24T07:54:25;7.82;;;4.50;;
48203;SDS011;33994;50.998;5.864;2023-04-24T07:57:28;9.13;;;5.00;;
48203;SDS011;33994;50.998;5.864;2023-04-24T08:00:33;9.15;;;4.88;;
48203;SDS011;33994;50.998;5.864;2023-04-24T08:03:36;9.77;;;5.30;;
48203;SDS011;33994;50.998;5.864;2023-04-24T08:06:39;9.95;;;5.00;;
48203;SDS011;33994;50.998;5.864;2023-04-24T08:09:42;12.02;;;5.18;;
48203;SDS011;33994;50.998;5.864;2023-04-24T08:12:45;9.75;;;4.70;;
48203;SDS011;33994;50.998;5.864;2023-04-24T13:03:11;8.00;;;3.03;;
48203;SDS011;33994;50.998;5.864;2023-04-24T13:06:14;7.15;;;3.22;;
48203;SDS011;33994;50.998;5.864;2023-04-24T13:09:17;8.02;;;3.70;;
48203;SDS011;33994;50.998;5.864;2023-04-24T13:12:21;12.32;;;4.80;;
48203;SDS011;33994;50.998;5.864;2023-04-24T13:15:24;14.68;;;5.00;;
48203;SDS011;33994;50.998;5.864;2023-04-24T13:18:28;6.60;;;4.18;;
48203;SDS011;33994;50.998;5.864;2023-04-24T13:21:31;10.45;;;4.93;;
48203;SDS011;33994;50.998;5.864;2023-04-24T13:24:34;11.73;;;5.18;;
48203;SDS011;33994;50.998;5.864;2023-04-24T13:27:38;11.23;;;4.55;;
48203;SDS011;33994;50.998;5.864;2023-04-24T13:30:41;9.27;;;5.00;;
48203;SDS011;33994;50.998;5.864;2023-04-24T13:33:46;9.80;;;4.70;;
48203;SDS011;33994;50.998;5.864;2023-04-24T13:36:49;8.95;;;4.90;;
48203;SDS011;33994;50.998;5.864;2023-04-24T13:39:52;9.73;;;4.80;;
48203;SDS011;33994;50.998;5.864;2023-04-24T13:42:55;10.65;;;4.60;;
48203;SDS011;33994;50.998;5.864;2023-04-24T13:45:58;10.68;;;4.80;;
48203;SDS011;33994;50.998;5.864;2023-04-24T13:49:03;13.32;;;4.93;;
48203;SDS011;33994;50.998;5.864;2023-04-24T13:52:06;10.02;;;4.32;;
48203;SDS011;33994;50.998;5.864;2023-04-24T13:55:10;7.22;;;4.00;;
48203;SDS011;33994;50.998;5.864;2023-04-24T13:58:13;7.82;;;4.35;;
48203;SDS011;33994;50.998;5.864;2023-04-24T14:01:16;9.18;;;4.43;;
48203;SDS011;33994;50.998;5.864;2023-04-24T14:04:20;11.55;;;5.10;;
48203;SDS011;33994;50.998;5.864;2023-04-24T14:07:24;8.30;;;4.45;;
48203;SDS011;33994;50.998;5.864;2023-04-24T14:10:27;8.50;;;4.50;;
48203;SDS011;33994;50.998;5.864;2023-04-24T14:13:30;12.30;;;4.78;;
48203;SDS011;33994;50.998;5.864;2023-04-24T14:16:34;11.00;;;5.82;;
48203;SDS011;33994;50.998;5.864;2023-04-24T14:19:38;7.22;;;4.35;;
48203;SDS011;33994;50.998;5.864;2023-04-24T14:22:41;8.98;;;3.42;;
48203;SDS011;33994;50.998;5.864;2023-04-24T14:25:44;5.80;;;3.13;;
48203;SDS011;33994;50.998;5.864;2023-04-24T14:28:48;5.13;;;3.17;;
48203;SDS011;33994;50.998;5.864;2023-04-24T14:31:51;6.32;;;3.10;;
48203;SDS011;33994;50.998;5.864;2023-04-24T14:34:55;8.00;;;2.90;;
48203;SDS011;33994;50.998;5.864;2023-04-24T14:37:58;10.23;;;2.70;;
48203;SDS011;33994;50.998;5.864;2023-04-24T14:41:02;9.32;;;2.95;;
48203;SDS011;33994;50.998;5.864;2023-04-24T14:44:05;5.85;;;2.58;;
48203;SDS011;33994;50.998;5.864;2023-04-24T14:47:08;7.60;;;3.03;;
48203;SDS011;33994;50.998;5.864;2023-04-24T14:50:12;10.45;;;3.90;;
48203;SDS011;33994;50.998;5.864;2023-04-24T14:53:16;6.53;;;3.00;;
48203;SDS011;33994;50.998;5.864;2023-04-24T14:56:19;8.20;;;3.63;;
48203;SDS011;33994;50.998;5.864;2023-04-24T14:59:22;7.55;;;3.42;;
48203;SDS011;33994;50.998;5.864;2023-04-24T15:02:25;9.82;;;3.70;;
48203;SDS011;33994;50.998;5.864;2023-04-24T15:05:30;8.40;;;3.65;;
48203;SDS011;33994;50.998;5.864;2023-04-24T15:08:33;6.90;;;3.30;;
48203;SDS011;33994;50.998;5.864;2023-04-24T15:11:36;6.82;;;3.22;;
48203;SDS011;33994;50.998;5.864;2023-04-24T15:14:39;7.75;;;3.08;;
48203;SDS011;33994;50.998;5.864;2023-04-24T15:17:42;8.90;;;3.47;;
48203;SDS011;33994;50.998;5.864;2023-04-24T15:20:47;5.18;;;2.85;;
48203;SDS011;33994;50.998;5.864;2023-04-24T15:23:50;9.15;;;3.00;;
48203;SDS011;33994;50.998;5.864;2023-04-24T15:26:54;7.50;;;2.83;;
48203;SDS011;33994;50.998;5.864;2023-04-24T15:29:56;7.20;;;2.55;;
48203;SDS011;33994;50.998;5.864;2023-04-24T15:32:59;6.35;;;3.08;;
48203;SDS011;33994;50.998;5.864;2023-04-24T15:36:04;5.88;;;2.83;;
48203;SDS011;33994;50.998;5.864;2023-04-24T15:39:07;3.95;;;2.58;;
48203;SDS011;33994;50.998;5.864;2023-04-24T15:42:16;8.00;;;2.45;;
48203;SDS011;33994;50.998;5.864;2023-04-24T15:45:19;4.70;;;2.50;;
48203;SDS011;33994;50.998;5.864;2023-04-24T15:48:22;4.47;;;2.85;;
48203;SDS011;33994;50.998;5.864;2023-04-24T15:51:27;5.63;;;2.50;;
48203;SDS011;33994;50.998;5.864;2023-04-24T15:54:30;6.88;;;2.70;;
48203;SDS011;33994;50.998;5.864;2023-04-24T15:57:33;7.80;;;2.65;;
48203;SDS011;33994;50.998;5.864;2023-04-24T16:00:36;6.95;;;3.72;;
48203;SDS011;33994;50.998;5.864;2023-04-24T16:03:40;3.70;;;2.28;;
48203;SDS011;33994;50.998;5.864;2023-04-24T16:06:44;7.30;;;2.15;;
48203;SDS011;33994;50.998;5.864;2023-04-24T16:09:47;5.20;;;2.00;;
48203;SDS011;33994;50.998;5.864;2023-04-24T16:12:50;3.38;;;2.30;;
48203;SDS011;33994;50.998;5.864;2023-04-24T16:15:54;4.95;;;2.00;;
48203;SDS011;33994;50.998;5.864;2023-04-24T16:18:57;5.22;;;2.20;;
48203;SDS011;33994;50.998;5.864;2023-04-24T16:22:02;3.90;;;2.03;;
48203;SDS011;33994;50.998;5.864;2023-04-24T16:25:06;3.53;;;1.88;;
48203;SDS011;33994;50.998;5.864;2023-04-24T16:28:10;3.20;;;1.98;;
48203;SDS011;33994;50.998;5.864;2023-04-24T16:31:13;8.20;;;2.10;;
48203;SDS011;33994;50.998;5.864;2023-04-24T16:34:16;4.80;;;1.90;;
48203;SDS011;33994;50.998;5.864;2023-04-24T16:37:21;3.17;;;1.90;;
48203;SDS011;33994;50.998;5.864;2023-04-24T16:40:24;5.07;;;1.92;;
48203;SDS011;33994;50.998;5.864;2023-04-24T16:43:27;3.30;;;1.50;;
48203;SDS011;33994;50.998;5.864;2023-04-24T16:46:30;4.60;;;1.98;;
48203;SDS011;33994;50.998;5.864;2023-04-24T16:49:36;6.55;;;2.47;;
48203;SDS011;33994;50.998;5.864;2023-04-24T16:52:40;6.68;;;1.90;;
48203;SDS011;33994;50.998;5.864;2023-04-24T16:55:43;4.72;;;2.35;;
48203;SDS011;33994;50.998;5.864;2023-04-24T16:58:47;6.75;;;2.30;;
48203;SDS011;33994;50.998;5.864;2023-04-24T17:01:49;5.07;;;2.47;;
48203;SDS011;33994;50.998;5.864;2023-04-24T17:04:53;5.82;;;2.08;;
48203;SDS011;33994;50.998;5.864;2023-04-24T17:07:57;8.27;;;2.50;;
48203;SDS011;33994;50.998;5.864;2023-04-24T17:11:01;5.65;;;2.13;;
48203;SDS011;33994;50.998;5.864;2023-04-24T17:14:04;4.50;;;2.28;;
48203;SDS011;33994;50.998;5.864;2023-04-24T17:17:07;5.10;;;2.50;;
48203;SDS011;33994;50.998;5.864;2023-04-24T17:20:11;7.55;;;2.38;;
48203;SDS011;33994;50.998;5.864;2023-04-24T17:23:15;10.73;;;2.70;;
48203;SDS011;33994;50.998;5.864;2023-04-24T17:26:18;5.43;;;2.63;;
48203;SDS011;33994;50.998;5.864;2023-04-24T17:29:21;4.38;;;2.30;;
48203;SDS011;33994;50.998;5.864;2023-04-24T17:32:25;5.47;;;2.83;;
48203;SDS011;33994;50.998;5.864;2023-04-24T17:35:28;9.05;;;2.35;;
48203;SDS011;33994;50.998;5.864;2023-04-24T17:38:32;6.72;;;2.45;;
48203;SDS011;33994;50.998;5.864;2023-04-24T17:41:35;8.15;;;2.20;;
48203;SDS011;33994;50.998;5.864;2023-04-24T17:44:39;4.43;;;2.15;;
48203;SDS011;33994;50.998;5.864;2023-04-24T17:47:42;6.57;;;2.55;;
48203;SDS011;33994;50.998;5.864;2023-04-24T17:50:45;4.55;;;2.17;;
48203;SDS011;33994;50.998;5.864;2023-04-24T17:53:49;6.78;;;2.13;;
48203;SDS011;33994;50.998;5.864;2023-04-24T17:56:52;5.07;;;2.20;;
48203;SDS011;33994;50.998;5.864;2023-04-24T17:59:56;4.30;;;2.10;;
48203;SDS011;33994;50.998;5.864;2023-04-24T18:02:59;7.85;;;3.08;;
48203;SDS011;33994;50.998;5.864;2023-04-24T18:06:03;5.32;;;2.50;;
48203;SDS011;33994;50.998;5.864;2023-04-24T18:09:08;4.25;;;2.22;;
48203;SDS011;33994;50.998;5.864;2023-04-24T18:12:12;7.53;;;2.45;;
48203;SDS011;33994;50.998;5.864;2023-04-24T18:15:15;7.25;;;2.50;;
48203;SDS011;33994;50.998;5.864;2023-04-24T18:18:18;8.82;;;2.38;;
48203;SDS011;33994;50.998;5.864;2023-04-24T18:21:21;7.03;;;2.35;;
48203;SDS011;33994;50.998;5.864;2023-04-24T18:24:26;10.07;;;2.45;;
48203;SDS011;33994;50.998;5.864;2023-04-24T18:27:29;7.20;;;2.15;;
48203;SDS011;33994;50.998;5.864;2023-04-24T18:30:32;8.88;;;2.92;;
48203;SDS011;33994;50.998;5.864;2023-04-24T18:33:35;6.20;;;2.58;;
48203;SDS011;33994;50.998;5.864;2023-04-24T18:36:39;10.52;;;3.30;;
48203;SDS011;33994;50.998;5.864;2023-04-24T18:39:43;12.35;;;2.88;;
48203;SDS011;33994;50.998;5.864;2023-04-24T18:42:46;6.00;;;2.67;;
48203;SDS011;33994;50.998;5.864;2023-04-24T18:45:49;6.15;;;2.40;;
48203;SDS011;33994;50.998;5.864;2023-04-24T18:48:52;5.78;;;2.30;;
48203;SDS011;33994;50.998;5.864;2023-04-24T18:51:56;7.47;;;2.60;;
48203;SDS011;33994;50.998;5.864;2023-04-24T18:55:00;7.55;;;2.92;;
48203;SDS011;33994;50.998;5.864;2023-04-24T18:58:04;10.40;;;2.65;;
48203;SDS011;33994;50.998;5.864;2023-04-24T19:01:07;6.05;;;2.70;;
48203;SDS011;33994;50.998;5.864;2023-04-24T19:04:10;7.25;;;2.80;;
48203;SDS011;33994;50.998;5.864;2023-04-24T19:07:13;8.77;;;3.03;;
48203;SDS011;33994;50.998;5.864;2023-04-24T19:10:18;8.13;;;3.38;;
48203;SDS011;33994;50.998;5.864;2023-04-24T19:13:21;9.13;;;3.17;;
48203;SDS011;33994;50.998;5.864;2023-04-24T19:16:24;7.45;;;2.95;;
48203;SDS011;33994;50.998;5.864;2023-04-24T19:19:27;9.77;;;3.03;;
48203;SDS011;33994;50.998;5.864;2023-04-24T19:22:31;7.32;;;3.22;;
48203;SDS011;33994;50.998;5.864;2023-04-24T19:25:35;5.93;;;2.58;;
48203;SDS011;33994;50.998;5.864;2023-04-24T19:28:38;8.93;;;3.63;;
48203;SDS011;33994;50.998;5.864;2023-04-24T19:31:41;8.93;;;3.05;;
48203;SDS011;33994;50.998;5.864;2023-04-24T19:34:45;8.07;;;3.50;;
48203;SDS011;33994;50.998;5.864;2023-04-24T19:37:48;7.47;;;3.03;;
48203;SDS011;33994;50.998;5.864;2023-04-24T19:40:52;6.38;;;3.83;;
48203;SDS011;33994;50.998;5.864;2023-04-24T19:43:55;7.15;;;2.83;;
48203;SDS011;33994;50.998;5.864;2023-04-24T19:46:59;10.80;;;3.42;;
48203;SDS011;33994;50.998;5.864;2023-04-24T19:50:02;7.28;;;3.05;;
48203;SDS011;33994;50.998;5.864;2023-04-24T19:53:06;6.32;;;2.67;;
48203;SDS011;33994;50.998;5.864;2023-04-24T19:56:11;11.77;;;3.28;;
48203;SDS011;33994;50.998;5.864;2023-04-24T19:59:14;6.15;;;3.10;;
48203;SDS011;33994;50.998;5.864;2023-04-24T20:02:17;5.75;;;2.58;;
48203;SDS011;33994;50.998;5.864;2023-04-24T20:05:20;9.18;;;3.33;;
48203;SDS011;33994;50.998;5.864;2023-04-24T20:08:23;10.07;;;3.42;;
48203;SDS011;33994;50.998;5.864;2023-04-24T20:11:28;14.35;;;3.75;;
48203;SDS011;33994;50.998;5.864;2023-04-24T20:14:30;12.77;;;3.63;;
48203;SDS011;33994;50.998;5.864;2023-04-24T20:17:34;19.95;;;4.15;;
48203;SDS011;33994;50.998;5.864;2023-04-24T20:20:37;15.73;;;4.35;;
48203;SDS011;33994;50.998;5.864;2023-04-24T20:23:40;8.57;;;3.65;;
48203;SDS011;33994;50.998;5.864;2023-04-24T20:26:44;8.55;;;3.67;;
48203;SDS011;33994;50.998;5.864;2023-04-24T20:29:48;10.80;;;3.92;;
48203;SDS011;33994;50.998;5.864;2023-04-24T20:32:51;9.27;;;4.00;;
48203;SDS011;33994;50.998;5.864;2023-04-24T20:35:54;9.68;;;4.32;;
48203;SDS011;33994;50.998;5.864;2023-04-24T20:38:57;8.77;;;3.92;;
48203;SDS011;33994;50.998;5.864;2023-04-24T20:42:02;9.95;;;3.92;;
48203;SDS011;33994;50.998;5.864;2023-04-24T20:45:06;9.63;;;4.03;;
48203;SDS011;33994;50.998;5.864;2023-04-24T20:48:10;13.05;;;4.38;;
48203;SDS011;33994;50.998;5.864;2023-04-24T20:51:13;9.80;;;3.92;;
48203;SDS011;33994;50.998;5.864;2023-04-24T20:54:16;11.70;;;3.90;;
48203;SDS011;33994;50.998;5.864;2023-04-24T20:57:21;10.63;;;4.03;;
48203;SDS011;33994;50.998;5.864;2023-04-24T21:00:24;11.82;;;4.72;;
48203;SDS011;33994;50.998;5.864;2023-04-24T21:03:30;15.02;;;4.40;;
48203;SDS011;33994;50.998;5.864;2023-04-24T21:06:33;7.80;;;3.30;;
48203;SDS011;33994;50.998;5.864;2023-04-24T21:09:36;11.50;;;4.30;;
48203;SDS011;33994;50.998;5.864;2023-04-24T21:12:41;8.15;;;3.67;;
48203;SDS011;33994;50.998;5.864;2023-04-24T21:15:44;12.15;;;4.43;;
48203;SDS011;33994;50.998;5.864;2023-04-24T21:18:47;13.30;;;4.20;;
48203;SDS011;33994;50.998;5.864;2023-04-24T21:21:50;15.30;;;4.47;;
48203;SDS011;33994;50.998;5.864;2023-04-24T21:24:54;14.00;;;4.30;;
48203;SDS011;33994;50.998;5.864;2023-04-24T21:27:58;10.90;;;4.22;;
48203;SDS011;33994;50.998;5.864;2023-04-24T21:31:01;13.63;;;4.38;;
48203;SDS011;33994;50.998;5.864;2023-04-24T21:34:05;9.15;;;3.83;;
48203;SDS011;33994;50.998;5.864;2023-04-24T21:37:08;7.97;;;3.90;;
48203;SDS011;33994;50.998;5.864;2023-04-24T21:40:11;11.07;;;4.15;;
48203;SDS011;33994;50.998;5.864;2023-04-24T21:43:16;7.97;;;3.60;;
48203;SDS011;33994;50.998;5.864;2023-04-24T21:46:19;19.83;;;4.53;;
48203;SDS011;33994;50.998;5.864;2023-04-24T21:49:22;20.08;;;4.68;;
48203;SDS011;33994;50.998;5.864;2023-04-24T21:52:25;13.93;;;3.95;;
48203;SDS011;33994;50.998;5.864;2023-04-24T21:55:29;11.50;;;3.60;;
48203;SDS011;33994;50.998;5.864;2023-04-24T21:58:33;13.88;;;4.05;;
48203;SDS011;33994;50.998;5.864;2023-04-24T22:01:37;13.23;;;3.83;;
48203;SDS011;33994;50.998;5.864;2023-04-24T22:04:40;15.85;;;3.88;;
48203;SDS011;33994;50.998;5.864;2023-04-24T22:07:43;10.35;;;3.88;;
48203;SDS011;33994;50.998;5.864;2023-04-24T22:10:46;11.45;;;4.13;;
48203;SDS011;33994;50.998;5.864;2023-04-24T22:13:51;13.20;;;4.35;;
48203;SDS011;33994;50.998;5.864;2023-04-24T22:16:54;11.20;;;4.10;;
48203;SDS011;33994;50.998;5.864;2023-04-24T22:19:57;12.05;;;4.18;;
48203;SDS011;33994;50.998;5.864;2023-04-24T22:23:01;10.73;;;4.30;;
48203;SDS011;33994;50.998;5.864;2023-04-24T22:26:04;11.65;;;4.22;;
48203;SDS011;33994;50.998;5.864;2023-04-24T22:29:08;15.15;;;4.63;;
48203;SDS011;33994;50.998;5.864;2023-04-24T22:32:12;12.15;;;4.20;;
48203;SDS011;33994;50.998;5.864;2023-04-24T22:35:15;9.43;;;4.00;;
48203;SDS011;33994;50.998;5.864;2023-04-24T22:38:18;13.27;;;4.30;;
48203;SDS011;33994;50.998;5.864;2023-04-24T22:41:21;8.60;;;4.55;;
48203;SDS011;33994;50.998;5.864;2023-04-24T22:44:26;15.35;;;4.25;;
48203;SDS011;33994;50.998;5.864;2023-04-24T22:47:29;10.30;;;4.00;;
48203;SDS011;33994;50.998;5.864;2023-04-24T22:50:32;14.75;;;4.00;;
48203;SDS011;33994;50.998;5.864;2023-04-24T22:53:35;14.25;;;4.45;;
48203;SDS011;33994;50.998;5.864;2023-04-24T22:56:38;12.43;;;4.05;;
48203;SDS011;33994;50.998;5.864;2023-04-24T22:59:43;14.32;;;4.70;;
48203;SDS011;33994;50.998;5.864;2023-04-24T23:02:46;13.32;;;4.45;;